createdAt,value
2019-03-01T00:00:01.243Z,0
2019-03-01T00:10:00.860Z,0
2019-03-01T00:20:00.845Z,0
2019-03-01T00:30:01.257Z,0
2019-03-01T00:40:01.086Z,0
2019-03-01T00:50:01.083Z,0
2019-03-01T01:00:01.417Z,0
2019-03-01T01:10:02.287Z,0
2019-03-01T01:20:01.103Z,0
2019-03-01T01:30:01.276Z,0
2019-03-01T01:40:01.274Z,0
2019-03-01T01:50:00.858Z,0
2019-03-01T02:00:00.937Z,0
2019-03-01T02:10:01.002Z,0
2019-03-01T02:20:01.390Z,0
2019-03-01T02:30:01.527Z,0
2019-03-01T02:40:01.121Z,0
2019-03-01T02:50:01.149Z,0
2019-03-01T03:00:01.319Z,0
2019-03-01T03:10:00.924Z,0
2019-03-01T03:20:01.071Z,0
2019-03-01T03:30:01.471Z,0
2019-03-01T03:40:00.877Z,0
2019-03-01T03:50:01.108Z,0
2019-03-01T04:00:01.286Z,0
2019-03-01T04:10:00.845Z,0
2019-03-01T04:20:01.160Z,0
2019-03-01T04:30:01.624Z,0
2019-03-01T04:40:00.841Z,0
2019-03-01T04:50:00.930Z,0
2019-03-01T05:00:01.389Z,0
2019-03-01T05:10:01.110Z,0
2019-03-01T05:20:01.175Z,0
2019-03-01T05:30:01.325Z,0
2019-03-01T05:40:01.204Z,10
2019-03-01T05:50:01.162Z,47
2019-03-01T06:00:01.325Z,167
2019-03-01T06:10:01.200Z,123
2019-03-01T06:20:01.464Z,167
2019-03-01T06:30:01.383Z,537
2019-03-01T06:40:01.308Z,1150
2019-03-01T06:50:01.215Z,1580
2019-03-01T07:00:01.227Z,2657
2019-03-01T07:10:01.289Z,2427
2019-03-01T07:20:01.123Z,2010
2019-03-01T07:30:01.247Z,3467
2019-03-01T07:40:01.559Z,4353
2019-03-01T07:50:01.031Z,7450
2019-03-01T08:00:01.632Z,10663
2019-03-01T08:10:01.005Z,2037
2019-03-01T08:20:01.428Z,8587
2019-03-01T08:30:01.291Z,4200
2019-03-01T08:40:01.455Z,6667
2019-03-01T08:50:01.152Z,10727
2019-03-01T09:00:01.031Z,11013
2019-03-01T09:10:01.236Z,21813
2019-03-01T09:20:01.274Z,19197
2019-03-01T09:30:03.452Z,16640
2019-03-01T09:40:05.355Z,22707
2019-03-01T09:50:01.360Z,23040
2019-03-01T10:00:01.057Z,11143
2019-03-01T10:10:01.433Z,1553
2019-03-01T10:20:01.163Z,6920
2019-03-01T10:30:01.014Z,6370
2019-03-01T10:40:00.986Z,2420
2019-03-01T10:50:01.345Z,7557
2019-03-01T11:00:01.193Z,9700
2019-03-01T11:10:01.322Z,12910
2019-03-01T11:20:01.292Z,10553
2019-03-01T11:30:01.664Z,17673
2019-03-01T11:40:01.278Z,16310
2019-03-01T11:50:01.162Z,19227
2019-03-01T12:00:01.559Z,23517
2019-03-01T12:10:01.098Z,17437
2019-03-01T12:20:01.164Z,13783
2019-03-01T12:30:00.396Z,5493
2019-03-01T12:40:01.058Z,5530
2019-03-01T12:50:01.082Z,6030
2019-03-01T13:00:01.707Z,5447
2019-03-01T13:10:02.725Z,4297
2019-03-01T13:20:02.218Z,4297
2019-03-01T13:30:01.471Z,8197
2019-03-01T13:40:01.390Z,4700
2019-03-01T13:50:05.372Z,7483
2019-03-01T14:00:01.102Z,4023
2019-03-01T14:10:04.653Z,4200
2019-03-01T14:20:01.271Z,2863
2019-03-01T14:30:02.035Z,3427
2019-03-01T14:40:01.232Z,3063
2019-03-01T14:50:01.322Z,3107
2019-03-01T15:00:01.551Z,5300
2019-03-01T15:10:01.734Z,9573
2019-03-01T15:20:01.303Z,8747
2019-03-01T15:30:01.512Z,5843
2019-03-01T15:40:01.442Z,5933
2019-03-01T15:50:01.088Z,6917
2019-03-01T16:00:01.565Z,4910
2019-03-01T16:10:02.100Z,3900
2019-03-01T16:20:01.141Z,2350
2019-03-01T16:30:01.573Z,1510
2019-03-01T16:40:01.574Z,920
2019-03-01T16:50:02.678Z,390
2019-03-01T17:00:01.335Z,127
2019-03-01T17:10:02.143Z,50
2019-03-01T17:20:02.250Z,7
2019-03-01T17:30:01.056Z,0
2019-03-01T17:40:01.326Z,0
2019-03-01T17:50:01.172Z,0
2019-03-01T18:00:01.014Z,0
2019-03-01T18:10:01.041Z,0
2019-03-01T18:20:02.593Z,0
2019-03-01T18:30:01.279Z,0
2019-03-01T18:40:00.927Z,0
2019-03-01T18:50:00.865Z,0
2019-03-01T19:00:01.312Z,0
2019-03-01T19:10:00.897Z,0
2019-03-01T19:20:01.870Z,0
2019-03-01T19:30:01.054Z,0
2019-03-01T19:40:01.202Z,0
2019-03-01T19:50:01.470Z,0
2019-03-01T20:00:01.136Z,0
2019-03-01T20:10:01.203Z,0
2019-03-01T20:20:01.072Z,0
2019-03-01T20:30:01.264Z,0
2019-03-01T20:40:01.172Z,0
2019-03-01T20:50:00.885Z,0
2019-03-01T21:00:01.780Z,0
2019-03-01T21:10:01.165Z,0
2019-03-01T21:20:01.133Z,0
2019-03-01T21:30:01.453Z,0
2019-03-01T21:40:03.113Z,0
2019-03-01T21:50:03.845Z,0
2019-03-01T22:00:01.282Z,0
2019-03-01T22:10:01.132Z,0
2019-03-01T22:20:00.906Z,0
2019-03-01T22:30:01.274Z,0
2019-03-01T22:40:01.294Z,0
2019-03-01T22:50:03.945Z,0
2019-03-01T23:00:01.054Z,0
2019-03-01T23:10:00.948Z,0
2019-03-01T23:20:01.221Z,0
2019-03-01T23:30:01.432Z,0
2019-03-01T23:40:02.368Z,0
2019-03-01T23:50:00.880Z,0
